createdAt,value
2022-09-21T00:01:52.634Z,7.70
2022-09-21T00:04:19.783Z,8.53
2022-09-21T00:06:46.913Z,10.10
2022-09-21T00:09:14.018Z,10.40
2022-09-21T00:11:41.039Z,11.53
2022-09-21T00:14:10.960Z,8.10
2022-09-21T00:16:38.224Z,9.30
2022-09-21T00:19:06.546Z,11.20
2022-09-21T00:21:34.271Z,9.45
2022-09-21T00:24:02.549Z,7.60
2022-09-21T00:26:30.007Z,8.27
2022-09-21T00:28:58.308Z,8.70
2022-09-21T00:31:25.966Z,8.10
2022-09-21T00:33:53.373Z,6.93
2022-09-21T00:36:21.952Z,8.00
2022-09-21T00:38:52.757Z,7.63
2022-09-21T00:41:19.832Z,7.23
2022-09-21T00:43:48.535Z,8.10
2022-09-21T00:46:31.340Z,12.87
2022-09-21T00:48:58.865Z,12.23
2022-09-21T00:51:26.203Z,14.17
2022-09-21T00:53:55.255Z,11.70
2022-09-21T00:56:23.069Z,11.13
2022-09-21T00:58:51.720Z,9.30
2022-09-21T01:01:18.994Z,10.30
2022-09-21T01:03:50.966Z,9.37
2022-09-21T01:06:19.297Z,12.20
2022-09-21T01:08:47.922Z,11.93
2022-09-21T01:11:18.129Z,10.27
2022-09-21T01:13:47.829Z,9.17
2022-09-21T01:16:25.746Z,11.13
2022-09-21T01:19:11.523Z,7.60
2022-09-21T01:21:45.534Z,9.87
2022-09-21T01:24:12.479Z,8.50
2022-09-21T01:26:39.450Z,10.53
2022-09-21T01:29:25.247Z,10.27
2022-09-21T01:31:56.578Z,12.13
2022-09-21T01:34:31.008Z,10.17
2022-09-21T01:36:59.730Z,12.32
2022-09-21T01:39:27.553Z,9.63
2022-09-21T01:41:55.401Z,9.47
2022-09-21T01:44:24.140Z,10.97
2022-09-21T01:46:51.745Z,8.87
2022-09-21T01:49:22.072Z,9.10
2022-09-21T01:51:52.385Z,12.70
2022-09-21T01:54:22.842Z,9.30
2022-09-21T01:56:55.171Z,12.23
2022-09-21T01:59:34.999Z,9.53
2022-09-21T02:02:05.513Z,9.53
2022-09-21T02:04:35.086Z,11.57
2022-09-21T02:07:02.448Z,10.10
2022-09-21T02:09:29.615Z,9.47
2022-09-21T02:11:58.332Z,9.90
2022-09-21T02:14:26.182Z,10.13
2022-09-21T02:17:02.178Z,8.07
2022-09-21T02:19:48.040Z,8.47
2022-09-21T02:22:15.009Z,8.10
2022-09-21T02:24:45.051Z,10.27
2022-09-21T02:27:18.254Z,8.00
2022-09-21T02:29:51.469Z,6.80
2022-09-21T02:32:33.409Z,7.30
2022-09-21T02:35:03.785Z,8.13
2022-09-21T02:37:55.934Z,7.43
2022-09-21T02:40:36.003Z,8.53
2022-09-21T02:43:06.729Z,7.07
2022-09-21T02:45:35.916Z,7.57
2022-09-21T02:48:08.594Z,8.20
2022-09-21T02:50:54.351Z,9.13
2022-09-21T02:53:26.491Z,8.33
2022-09-21T02:55:56.597Z,8.57
2022-09-21T02:58:26.064Z,10.33
2022-09-21T03:00:53.446Z,7.43
2022-09-21T03:03:22.282Z,6.87
2022-09-21T03:05:50.198Z,6.70
2022-09-21T03:08:17.544Z,10.50
2022-09-21T03:10:44.585Z,9.50
2022-09-21T03:13:11.766Z,9.47
2022-09-21T03:15:42.194Z,9.17
2022-09-21T03:18:11.205Z,6.83
2022-09-21T03:20:39.050Z,9.10
2022-09-21T03:23:06.249Z,8.20
2022-09-21T03:25:33.658Z,9.23
2022-09-21T03:28:01.286Z,11.07
2022-09-21T03:30:29.209Z,9.17
2022-09-21T03:32:56.334Z,7.13
2022-09-21T03:35:25.236Z,9.43
2022-09-21T03:37:52.243Z,6.90
2022-09-21T03:40:20.051Z,7.07
2022-09-21T03:42:47.078Z,7.90
2022-09-21T03:45:14.107Z,8.27
2022-09-21T03:47:41.613Z,9.00
2022-09-21T03:50:10.257Z,8.40
2022-09-21T03:52:38.461Z,7.80
2022-09-21T03:55:06.581Z,11.60
2022-09-21T03:57:34.389Z,8.13
2022-09-21T04:00:03.621Z,9.50
2022-09-21T04:02:31.934Z,10.23
2022-09-21T04:04:59.607Z,10.73
2022-09-21T04:07:26.604Z,9.97
2022-09-21T04:09:53.960Z,7.93
2022-09-21T04:12:24.011Z,7.27
2022-09-21T04:14:51.087Z,7.10
2022-09-21T04:17:18.139Z,7.87
2022-09-21T04:19:45.422Z,8.83
2022-09-21T04:22:12.700Z,9.13
2022-09-21T04:24:40.892Z,7.90
2022-09-21T04:27:08.583Z,9.30
2022-09-21T04:29:35.845Z,8.47
2022-09-21T04:32:02.961Z,8.93
2022-09-21T04:34:31.136Z,9.03
2022-09-21T04:36:58.648Z,9.20
2022-09-21T04:39:26.302Z,11.90
2022-09-21T04:41:53.320Z,10.50
2022-09-21T04:44:20.442Z,10.63
2022-09-21T04:46:47.424Z,8.67
2022-09-21T04:49:14.436Z,8.77
2022-09-21T04:51:41.537Z,8.10
2022-09-21T04:54:08.551Z,9.27
2022-09-21T04:56:35.842Z,9.27
2022-09-21T04:59:02.850Z,6.97
2022-09-21T05:01:29.927Z,7.70
2022-09-21T05:04:01.721Z,8.30
2022-09-21T05:06:29.833Z,12.67
2022-09-21T05:09:15.589Z,9.47
2022-09-21T05:11:42.599Z,7.33
2022-09-21T05:14:09.772Z,9.10
2022-09-21T05:16:37.440Z,11.93
2022-09-21T05:19:04.515Z,11.18
2022-09-21T05:21:31.689Z,12.53
2022-09-21T05:23:59.166Z,10.23
2022-09-21T05:26:26.249Z,12.23
2022-09-21T05:28:53.446Z,9.20
2022-09-21T05:31:28.244Z,11.07
2022-09-21T05:33:58.601Z,9.37
2022-09-21T05:36:37.615Z,10.20
2022-09-21T05:39:04.725Z,8.60
2022-09-21T05:41:31.892Z,10.67
2022-09-21T05:43:59.013Z,8.73
2022-09-21T05:46:29.088Z,9.80
2022-09-21T05:49:01.308Z,11.80
2022-09-21T05:51:34.200Z,9.17
2022-09-21T05:54:10.334Z,12.88
2022-09-21T05:56:43.162Z,11.57
2022-09-21T05:59:10.162Z,9.43
2022-09-21T06:01:37.208Z,11.17
2022-09-21T06:04:04.549Z,12.10
2022-09-21T06:06:31.564Z,9.90
2022-09-21T06:08:58.556Z,12.10
2022-09-21T06:11:25.538Z,11.63
2022-09-21T06:13:52.496Z,15.50
2022-09-21T06:16:19.574Z,10.20
2022-09-21T06:18:46.626Z,13.90
2022-09-21T06:21:13.730Z,16.77
2022-09-21T06:23:40.689Z,10.30
2022-09-21T06:26:07.696Z,10.73
2022-09-21T06:28:34.738Z,11.47
2022-09-21T06:31:01.757Z,15.13
2022-09-21T06:33:28.861Z,15.35
2022-09-21T06:35:59.890Z,18.90
2022-09-21T06:38:28.024Z,14.00
2022-09-21T06:40:55.363Z,16.40
2022-09-21T06:43:22.430Z,13.73
2022-09-21T06:45:59.742Z,13.80
2022-09-21T06:48:27.557Z,14.83
2022-09-21T06:51:01.493Z,15.73
2022-09-21T06:53:29.555Z,13.10
2022-09-21T06:56:09.723Z,15.13
2022-09-21T06:58:37.655Z,13.23
2022-09-21T07:01:06.425Z,15.97
2022-09-21T07:03:33.559Z,14.20
2022-09-21T07:06:00.657Z,16.17
2022-09-21T07:11:15.087Z,12.77
2022-09-21T07:13:42.471Z,15.60
2022-09-21T07:16:09.939Z,13.33
2022-09-21T07:18:43.542Z,15.30
2022-09-21T07:21:12.077Z,15.20
2022-09-21T07:23:39.368Z,14.57
2022-09-21T07:26:10.975Z,13.07
2022-09-21T07:28:38.054Z,13.33
2022-09-21T07:31:08.885Z,20.17
2022-09-21T07:33:36.310Z,14.20
2022-09-21T07:36:09.903Z,12.93
2022-09-21T07:38:37.822Z,12.77
2022-09-21T07:41:04.877Z,14.80
2022-09-21T07:43:32.000Z,13.00
2022-09-21T07:45:59.049Z,13.90
2022-09-21T07:48:26.059Z,13.80
2022-09-21T07:50:53.059Z,13.40
2022-09-21T07:53:20.041Z,12.00
2022-09-21T07:55:47.149Z,12.83
2022-09-21T07:58:37.443Z,11.27
2022-09-21T08:01:07.471Z,11.77
2022-09-21T08:03:34.496Z,14.07
2022-09-21T08:06:01.533Z,12.37
2022-09-21T08:08:28.532Z,10.40
2022-09-21T08:10:55.685Z,10.30
2022-09-21T08:13:22.691Z,9.30
2022-09-21T08:15:57.891Z,10.20
2022-09-21T08:18:24.913Z,10.77
2022-09-21T08:20:59.138Z,9.53
2022-09-21T08:23:28.902Z,6.77
2022-09-21T08:26:06.642Z,9.43
2022-09-21T08:28:34.243Z,7.97
2022-09-21T08:31:02.057Z,7.53
2022-09-21T08:33:29.961Z,8.90
2022-09-21T08:35:58.121Z,8.13
2022-09-21T08:38:25.687Z,7.20
2022-09-21T08:40:53.332Z,6.27
2022-09-21T08:43:30.239Z,7.83
2022-09-21T08:45:58.692Z,6.87
2022-09-21T08:48:30.874Z,6.30
2022-09-21T08:51:01.336Z,6.27
2022-09-21T08:53:31.142Z,7.50
2022-09-21T08:55:58.516Z,7.23
2022-09-21T08:58:27.214Z,6.70
2022-09-21T09:01:12.892Z,5.20
2022-09-21T09:03:41.743Z,4.13
2022-09-21T09:06:27.709Z,6.53
2022-09-21T09:09:00.765Z,4.73
2022-09-21T09:11:27.739Z,5.17
2022-09-21T09:14:01.153Z,6.13
2022-09-21T09:16:46.942Z,2.83
2022-09-21T09:19:23.138Z,3.43
2022-09-21T09:21:50.586Z,4.33
2022-09-21T09:24:28.458Z,3.90
2022-09-21T09:27:03.809Z,4.97
2022-09-21T09:29:53.808Z,3.63
2022-09-21T09:32:24.324Z,4.60
2022-09-21T09:34:58.565Z,2.87
2022-09-21T09:37:28.807Z,3.30
2022-09-21T09:39:57.648Z,2.80
2022-09-21T09:42:33.527Z,3.17
2022-09-21T09:45:15.076Z,3.97
2022-09-21T09:47:45.103Z,4.00
2022-09-21T09:50:20.380Z,3.43
2022-09-21T09:52:47.905Z,3.80
2022-09-21T09:55:18.965Z,2.97
2022-09-21T09:57:46.439Z,4.73
2022-09-21T10:00:15.200Z,3.80
2022-09-21T10:02:55.280Z,3.30
2022-09-21T10:05:32.957Z,5.53
2022-09-21T10:08:00.237Z,5.00
2022-09-21T10:10:37.724Z,2.70
2022-09-21T10:13:04.695Z,4.50
2022-09-21T10:15:31.713Z,2.17
2022-09-21T10:18:05.385Z,3.37
2022-09-21T10:20:32.974Z,3.90
2022-09-21T10:23:00.458Z,3.70
2022-09-21T10:25:27.637Z,3.23
2022-09-21T10:27:55.780Z,4.10
2022-09-21T10:30:31.827Z,5.47
2022-09-21T10:32:59.649Z,3.03
2022-09-21T10:35:27.082Z,2.90
2022-09-21T10:38:21.967Z,5.73
2022-09-21T10:40:49.729Z,4.40
2022-09-21T10:43:39.819Z,2.67
2022-09-21T10:46:09.789Z,2.93
2022-09-21T10:48:36.985Z,3.07
2022-09-21T10:51:04.685Z,4.43
2022-09-21T10:53:35.530Z,4.60
2022-09-21T10:56:28.869Z,5.63
2022-09-21T10:59:34.494Z,3.87
2022-09-21T11:02:02.692Z,3.90
2022-09-21T11:04:45.591Z,3.97
2022-09-21T11:07:24.876Z,5.63
2022-09-21T11:10:01.257Z,2.57
2022-09-21T11:12:34.415Z,3.07
2022-09-21T11:15:14.726Z,3.13
2022-09-21T11:17:45.465Z,3.53
2022-09-21T11:20:20.898Z,3.70
2022-09-21T11:22:57.404Z,2.20
2022-09-21T11:25:36.755Z,2.67
2022-09-21T11:28:07.110Z,3.80
2022-09-21T11:30:42.369Z,2.17
2022-09-21T11:33:37.332Z,2.03
2022-09-21T11:36:19.432Z,3.73
2022-09-21T11:38:59.545Z,1.50
2022-09-21T11:41:47.500Z,2.47
2022-09-21T11:44:25.503Z,3.00
2022-09-21T11:47:07.828Z,2.60
2022-09-21T11:49:34.780Z,1.83
2022-09-21T11:52:21.260Z,2.10
2022-09-21T11:54:51.878Z,2.00
2022-09-21T11:57:29.968Z,2.53
2022-09-21T11:59:58.653Z,3.43
2022-09-21T12:02:44.484Z,2.00
2022-09-21T12:05:23.919Z,3.03
2022-09-21T12:07:58.011Z,2.10
2022-09-21T12:10:45.541Z,2.87
2022-09-21T12:13:12.507Z,1.20
2022-09-21T12:15:44.101Z,1.93
2022-09-21T12:18:21.339Z,2.40
2022-09-21T12:20:54.493Z,1.40
2022-09-21T12:23:31.830Z,1.35
2022-09-21T12:25:59.320Z,1.60
2022-09-21T12:28:37.464Z,1.67
2022-09-21T12:31:12.835Z,1.90
2022-09-21T12:33:40.647Z,2.47
2022-09-21T12:36:19.272Z,2.57
2022-09-21T12:38:55.369Z,1.20
2022-09-21T12:41:31.328Z,1.23
2022-09-21T12:44:17.239Z,1.80
2022-09-21T12:46:44.211Z,1.30
2022-09-21T12:49:23.856Z,4.03
2022-09-21T12:51:54.434Z,1.67
2022-09-21T12:54:37.856Z,1.73
2022-09-21T12:57:49.353Z,1.30
2022-09-21T13:00:20.685Z,2.50
2022-09-21T13:03:26.286Z,1.85
2022-09-21T13:06:11.491Z,2.13
2022-09-21T13:08:46.614Z,1.43
2022-09-21T13:11:20.798Z,3.93
2022-09-21T13:13:53.646Z,1.73
2022-09-21T13:16:25.383Z,1.87
2022-09-21T13:19:02.862Z,2.00
2022-09-21T13:21:30.580Z,2.00
2022-09-21T13:23:58.831Z,5.77
2022-09-21T13:26:40.381Z,3.70
2022-09-21T13:29:26.637Z,2.00
2022-09-21T13:31:58.753Z,1.80
2022-09-21T13:34:30.019Z,3.80
2022-09-21T13:37:14.014Z,1.50
2022-09-21T13:40:05.207Z,1.30
2022-09-21T13:42:34.859Z,1.63
2022-09-21T13:45:42.132Z,1.37
2022-09-21T13:48:29.370Z,1.53
2022-09-21T13:50:57.915Z,1.60
2022-09-21T13:53:30.846Z,1.93
2022-09-21T13:56:08.686Z,2.20
2022-09-21T13:58:42.420Z,3.60
2022-09-21T14:01:45.786Z,2.07
2022-09-21T14:04:28.250Z,2.63
2022-09-21T14:06:56.741Z,1.33
2022-09-21T14:09:23.267Z,1.53
2022-09-21T14:11:59.062Z,1.83
2022-09-21T14:14:37.185Z,1.57
2022-09-21T14:17:36.744Z,2.05
2022-09-21T14:20:05.844Z,2.80
2022-09-21T14:22:34.271Z,1.83
2022-09-21T14:25:28.181Z,1.57
2022-09-21T14:28:00.451Z,2.17
2022-09-21T14:30:32.053Z,3.90
2022-09-21T14:33:02.097Z,1.67
2022-09-21T14:35:34.019Z,1.73
2022-09-21T14:38:05.282Z,1.77
2022-09-21T14:40:38.999Z,1.73
2022-09-21T14:43:15.487Z,2.40
2022-09-21T14:46:14.093Z,1.83
2022-09-21T14:48:50.174Z,1.53
2022-09-21T14:51:41.881Z,2.87
2022-09-21T14:54:16.259Z,1.80
2022-09-21T14:57:09.547Z,1.93
2022-09-21T14:59:50.180Z,2.73
2022-09-21T15:02:23.857Z,1.40
2022-09-21T15:05:02.077Z,2.03
2022-09-21T15:07:58.503Z,1.70
2022-09-21T15:11:06.531Z,2.07
2022-09-21T15:13:41.018Z,2.00
2022-09-21T15:16:21.706Z,1.40
2022-09-21T15:18:51.204Z,1.47
2022-09-21T15:21:29.166Z,1.93
2022-09-21T15:23:56.995Z,1.27
2022-09-21T15:26:29.129Z,2.57
2022-09-21T15:29:09.705Z,2.27
2022-09-21T15:31:42.325Z,1.83
2022-09-21T15:34:12.365Z,1.20
2022-09-21T15:36:40.643Z,1.63
2022-09-21T15:39:29.809Z,3.43
2022-09-21T15:42:17.724Z,1.77
2022-09-21T15:44:48.441Z,2.53
2022-09-21T15:47:19.864Z,1.90
2022-09-21T15:49:46.706Z,3.17
2022-09-21T15:52:31.759Z,1.20
2022-09-21T15:55:02.730Z,1.40
2022-09-21T15:57:39.246Z,2.23
2022-09-21T16:00:15.372Z,1.60
2022-09-21T16:02:50.644Z,2.07
2022-09-21T16:05:20.936Z,1.87
2022-09-21T16:07:47.612Z,2.03
2022-09-21T16:10:32.977Z,2.73
2022-09-21T16:13:24.300Z,1.60
2022-09-21T16:16:02.329Z,3.17
2022-09-21T16:18:41.196Z,2.53
2022-09-21T16:21:16.186Z,4.87
2022-09-21T16:23:43.113Z,1.70
2022-09-21T16:26:31.558Z,1.40
2022-09-21T16:29:19.374Z,2.73
2022-09-21T16:31:50.153Z,1.70
2022-09-21T16:34:17.593Z,2.07
2022-09-21T16:36:45.389Z,2.17
2022-09-21T16:39:15.542Z,2.37
2022-09-21T16:41:47.266Z,2.23
2022-09-21T16:44:20.513Z,1.60
2022-09-21T16:46:52.592Z,1.73
2022-09-21T16:49:21.633Z,2.10
2022-09-21T16:51:49.619Z,2.40
2022-09-21T16:54:18.016Z,3.03
2022-09-21T16:56:46.297Z,1.70
2022-09-21T16:59:16.226Z,1.80
2022-09-21T17:01:43.605Z,1.50
2022-09-21T17:04:13.335Z,2.53
2022-09-21T17:06:40.444Z,1.40
2022-09-21T17:09:29.614Z,1.40
2022-09-21T17:11:59.232Z,2.70
2022-09-21T17:14:25.844Z,1.67
2022-09-21T17:16:56.177Z,1.50
2022-09-21T17:19:22.860Z,1.40
2022-09-21T17:21:49.752Z,1.42
2022-09-21T17:24:33.080Z,2.50
2022-09-21T17:27:03.596Z,2.03
2022-09-21T17:29:31.069Z,2.13
2022-09-21T17:31:58.631Z,3.10
2022-09-21T17:34:27.283Z,1.70
2022-09-21T17:36:55.119Z,2.93
2022-09-21T17:39:23.400Z,1.73
2022-09-21T17:41:58.039Z,3.10
2022-09-21T17:44:55.021Z,1.70
2022-09-21T17:47:29.379Z,1.50
2022-09-21T17:50:02.579Z,1.80
2022-09-21T17:52:47.854Z,4.20
2022-09-21T17:55:14.627Z,3.67
2022-09-21T17:57:56.573Z,2.33
2022-09-21T18:00:25.007Z,1.50
2022-09-21T18:02:53.775Z,1.63
2022-09-21T18:05:24.397Z,2.90
2022-09-21T18:07:51.903Z,3.03
2022-09-21T18:10:22.856Z,2.03
2022-09-21T18:12:52.916Z,3.00
2022-09-21T18:15:27.340Z,1.70
2022-09-21T18:18:13.710Z,2.70
2022-09-21T18:21:04.466Z,2.13
2022-09-21T18:23:49.964Z,2.17
2022-09-21T18:26:17.513Z,2.27
2022-09-21T18:28:46.505Z,3.00
2022-09-21T18:31:42.818Z,3.30
2022-09-21T18:34:24.650Z,2.93
2022-09-21T18:37:04.536Z,2.70
2022-09-21T18:39:54.506Z,4.27
2022-09-21T18:42:39.413Z,7.53
2022-09-21T18:45:15.755Z,7.90
2022-09-21T18:47:51.012Z,9.57
2022-09-21T18:51:02.308Z,5.63
2022-09-21T18:53:41.142Z,5.20
2022-09-21T18:56:08.425Z,4.40
2022-09-21T18:58:35.931Z,3.73
2022-09-21T19:01:04.006Z,2.80
2022-09-21T19:03:31.134Z,2.67
2022-09-21T19:06:19.301Z,3.70
2022-09-21T19:09:17.865Z,5.67
2022-09-21T19:11:56.882Z,3.20
2022-09-21T19:14:56.155Z,2.97
2022-09-21T19:17:55.983Z,3.40
2022-09-21T19:20:49.700Z,3.57
2022-09-21T19:23:39.353Z,5.82
2022-09-21T19:26:29.502Z,3.43
2022-09-21T19:29:15.841Z,2.87
2022-09-21T19:31:44.018Z,3.23
2022-09-21T19:34:15.104Z,3.70
2022-09-21T19:36:43.286Z,4.23
2022-09-21T19:39:14.654Z,18.37
2022-09-21T19:42:02.054Z,3.87
2022-09-21T19:44:39.346Z,3.13
2022-09-21T19:47:25.881Z,4.00
2022-09-21T19:49:55.049Z,2.53
2022-09-21T19:52:36.223Z,2.57
2022-09-21T19:55:23.362Z,3.03
2022-09-21T19:58:08.918Z,4.20
2022-09-21T20:00:37.384Z,3.23
2022-09-21T20:03:21.633Z,5.20
2022-09-21T20:06:29.303Z,5.63
2022-09-21T20:09:03.067Z,5.87
2022-09-21T20:11:46.023Z,6.60
2022-09-21T20:14:22.697Z,6.73
2022-09-21T20:16:56.841Z,9.67
2022-09-21T20:19:26.544Z,6.87
2022-09-21T20:22:04.162Z,6.70
2022-09-21T20:24:46.466Z,8.30
2022-09-21T20:27:35.017Z,6.40
2022-09-21T20:30:05.750Z,9.13
2022-09-21T20:32:36.701Z,9.23
2022-09-21T20:35:07.212Z,6.30
2022-09-21T20:37:37.795Z,8.53
2022-09-21T20:40:13.178Z,7.40
2022-09-21T20:42:46.250Z,7.17
2022-09-21T20:45:19.310Z,8.10
2022-09-21T20:47:54.666Z,6.80
2022-09-21T20:50:31.711Z,8.60
2022-09-21T20:53:03.907Z,6.87
2022-09-21T20:55:36.123Z,4.67
2022-09-21T20:58:08.348Z,8.77
2022-09-21T21:00:40.558Z,5.70
2022-09-21T21:03:09.545Z,5.37
2022-09-21T21:05:36.553Z,4.77
2022-09-21T21:08:04.506Z,6.03
2022-09-21T21:10:31.801Z,5.67
2022-09-21T21:12:59.503Z,7.13
2022-09-21T21:15:26.474Z,7.57
2022-09-21T21:17:53.544Z,4.80
2022-09-21T21:20:21.674Z,4.63
2022-09-21T21:22:49.590Z,4.93
2022-09-21T21:25:16.869Z,6.10
2022-09-21T21:27:43.923Z,4.97
2022-09-21T21:30:11.972Z,4.40
2022-09-21T21:32:38.938Z,4.90
2022-09-21T21:35:06.298Z,5.67
2022-09-21T21:37:33.323Z,6.13
2022-09-21T21:40:00.476Z,7.20
2022-09-21T21:42:29.514Z,5.20
2022-09-21T21:44:56.737Z,5.00
2022-09-21T21:47:40.557Z,4.57
2022-09-21T21:50:08.503Z,4.43
2022-09-21T21:52:35.482Z,4.63
2022-09-21T21:55:02.588Z,4.30
2022-09-21T21:57:29.616Z,5.50
2022-09-21T21:59:56.652Z,4.77
2022-09-21T22:02:24.139Z,4.20
2022-09-21T22:04:51.188Z,7.30
2022-09-21T22:07:18.185Z,5.17
2022-09-21T22:09:45.162Z,4.07
2022-09-21T22:12:12.210Z,5.23
2022-09-21T22:14:39.540Z,6.60
2022-09-21T22:17:06.630Z,6.43
2022-09-21T22:19:33.651Z,6.17
2022-09-21T22:22:00.652Z,6.90
2022-09-21T22:24:27.657Z,6.60
2022-09-21T22:26:54.649Z,4.87
2022-09-21T22:29:21.618Z,4.60
2022-09-21T22:31:49.624Z,4.33
2022-09-21T22:34:16.775Z,5.87
2022-09-21T22:36:44.139Z,5.50
2022-09-21T22:39:11.612Z,3.80
2022-09-21T22:41:39.749Z,4.47
2022-09-21T22:44:06.823Z,3.73
2022-09-21T22:46:33.852Z,6.07
2022-09-21T22:49:00.878Z,6.20
2022-09-21T22:51:28.223Z,8.07
2022-09-21T22:53:55.250Z,4.50
2022-09-21T22:56:23.521Z,6.63
2022-09-21T22:58:51.590Z,3.93
2022-09-21T23:01:19.961Z,6.27
2022-09-21T23:03:51.923Z,7.80
2022-09-21T23:06:20.046Z,4.70
2022-09-21T23:08:50.685Z,6.20
2022-09-21T23:11:20.294Z,7.90
2022-09-21T23:13:47.298Z,3.63
2022-09-21T23:16:15.477Z,5.00
2022-09-21T23:18:43.065Z,4.77
2022-09-21T23:21:14.495Z,5.73
2022-09-21T23:23:42.499Z,4.53
2022-09-21T23:26:14.048Z,5.37
2022-09-21T23:28:41.886Z,7.93
2022-09-21T23:31:09.919Z,7.87
2022-09-21T23:33:40.746Z,9.97
2022-09-21T23:36:08.852Z,6.43
2022-09-21T23:38:36.190Z,4.70
2022-09-21T23:41:13.525Z,4.27
2022-09-21T23:43:41.528Z,5.95
2022-09-21T23:46:09.354Z,6.97
2022-09-21T23:48:36.350Z,5.20
2022-09-21T23:51:03.906Z,6.77
2022-09-21T23:53:31.552Z,8.77
2022-09-21T23:55:59.099Z,8.40
2022-09-21T23:58:26.673Z,6.97
